Douglas, North Dakota
Current Conditions -  °F | °C
As of 11:24 PM on Sunday 21 Dec 2014 (Local Time) from KMOT Reporting Station
Haze Haze  
Wind Chill: 21°   Ceiling: 200
Heat Index: 29°   Visibility: 3mi
Dew Point: 28°   Wind: 8mph
Humidity: 96%   Direction: 140°SE
Pressure: 29.43"   Gusts: NA
Location:  47.86°N, 101.5°W
Report Text: KMOT 220524Z AUTO 14007KT 3SM BR OVC002 M02/M02 A2943 RMK AO2 T10171022 $
Loading
Personal Weather Stations






























Interactive Weather Map New forecast layout! Learn more

10-Day Weather Forecast

Advertisements
Track Severe Weather on mobile